createdAt,value
2022-08-13T00:01:39.040Z,20.36
2022-08-13T00:04:19.945Z,20.09
2022-08-13T00:07:07.256Z,19.95
2022-08-13T00:09:39.811Z,20.04
2022-08-13T00:12:43.101Z,20.06
2022-08-13T00:15:15.083Z,20.22
2022-08-13T00:18:03.525Z,20.41
2022-08-13T00:20:36.808Z,20.20
2022-08-13T00:23:19.682Z,20.05
2022-08-13T00:25:52.098Z,19.89
2022-08-13T00:28:25.310Z,19.82
2022-08-13T00:30:53.742Z,19.66
2022-08-13T00:33:43.915Z,19.73
2022-08-13T00:36:13.999Z,19.40
2022-08-13T00:38:57.621Z,19.01
2022-08-13T00:41:58.141Z,19.11
2022-08-13T00:44:30.229Z,18.73
2022-08-13T00:47:12.306Z,18.62
2022-08-13T00:49:59.979Z,18.36
2022-08-13T00:52:32.699Z,17.94
2022-08-13T00:55:02.501Z,18.29
2022-08-13T00:57:33.566Z,18.60
2022-08-13T01:00:03.461Z,18.41
2022-08-13T01:02:43.134Z,18.54
2022-08-13T01:05:21.872Z,18.50
2022-08-13T01:07:57.964Z,18.76
2022-08-13T01:10:28.308Z,18.27
2022-08-13T01:12:57.565Z,18.22
2022-08-13T01:15:36.433Z,18.31
2022-08-13T01:18:15.783Z,18.13
2022-08-13T01:20:47.900Z,17.98
2022-08-13T01:23:19.360Z,18.02
2022-08-13T01:26:09.301Z,17.76
2022-08-13T01:28:42.514Z,17.30
2022-08-13T01:31:18.096Z,17.34
2022-08-13T01:33:50.949Z,17.39
2022-08-13T01:36:37.306Z,17.21
2022-08-13T01:39:18.056Z,17.06
2022-08-13T01:41:54.968Z,17.05
2022-08-13T01:44:26.513Z,17.13
2022-08-13T01:47:24.984Z,16.94
2022-08-13T01:50:11.699Z,16.59
2022-08-13T01:52:43.370Z,16.57
2022-08-13T01:55:15.651Z,16.37
2022-08-13T01:57:51.441Z,16.34
2022-08-13T02:00:27.825Z,16.21
2022-08-13T02:02:56.528Z,15.96
2022-08-13T02:06:21.953Z,15.90
2022-08-13T02:08:15.766Z,15.83
2022-08-13T02:10:50.426Z,15.59
2022-08-13T02:13:25.832Z,15.77
2022-08-13T02:16:01.110Z,15.80
2022-08-13T02:18:29.095Z,15.76
2022-08-13T02:20:58.945Z,15.86
2022-08-13T02:23:59.449Z,15.80
2022-08-13T02:26:26.715Z,15.72
2022-08-13T02:29:00.797Z,15.58
2022-08-13T02:32:05.783Z,15.52
2022-08-13T02:34:20.409Z,15.48
2022-08-13T02:36:56.542Z,15.66
2022-08-13T02:39:43.260Z,15.76
2022-08-13T02:42:16.063Z,15.47
2022-08-13T02:44:46.033Z,15.78
2022-08-13T02:47:17.141Z,15.32
2022-08-13T02:49:47.304Z,15.59
2022-08-13T02:52:16.663Z,14.90
2022-08-13T02:54:55.408Z,14.82
2022-08-13T02:57:27.710Z,15.11
2022-08-13T03:00:01.360Z,15.14
2022-08-13T03:02:34.831Z,15.45
2022-08-13T03:05:06.321Z,15.25
2022-08-13T03:07:51.522Z,15.16
2022-08-13T03:10:24.814Z,15.12
2022-08-13T03:13:08.986Z,15.30
2022-08-13T03:15:54.803Z,15.19
2022-08-13T03:18:26.848Z,15.12
2022-08-13T03:21:14.477Z,14.95
2022-08-13T03:23:44.759Z,15.14
2022-08-13T03:26:18.775Z,15.39
2022-08-13T03:28:55.500Z,15.15
2022-08-13T03:31:25.204Z,14.53
2022-08-13T03:34:04.254Z,14.46
2022-08-13T03:36:34.065Z,13.86
2022-08-13T03:39:02.896Z,14.46
2022-08-13T03:41:30.947Z,14.19
2022-08-13T03:44:11.008Z,14.42
2022-08-13T03:46:39.273Z,14.88
2022-08-13T03:49:07.187Z,14.27
2022-08-13T03:51:35.462Z,13.98
2022-08-13T03:54:04.682Z,13.63
2022-08-13T03:56:35.659Z,13.77
2022-08-13T03:59:04.648Z,13.66
2022-08-13T04:01:34.099Z,13.94
2022-08-13T04:04:03.656Z,13.98
2022-08-13T04:06:31.837Z,14.12
2022-08-13T04:09:04.833Z,13.96
2022-08-13T04:11:34.926Z,13.97
2022-08-13T04:14:40.800Z,13.92
2022-08-13T04:16:53.531Z,14.38
2022-08-13T04:19:21.439Z,14.56
2022-08-13T04:21:51.953Z,14.41
2022-08-13T04:24:22.065Z,14.37
2022-08-13T04:26:55.622Z,14.16
2022-08-13T04:29:23.571Z,13.98
2022-08-13T04:31:52.037Z,13.91
2022-08-13T04:34:34.095Z,13.82
2022-08-13T04:37:21.220Z,13.76
2022-08-13T04:40:06.661Z,13.77
2022-08-13T04:42:49.491Z,13.69
2022-08-13T04:45:18.315Z,13.86
2022-08-13T04:47:46.812Z,13.92
2022-08-13T04:50:19.072Z,14.10
2022-08-13T04:52:49.842Z,14.13
2022-08-13T04:55:19.470Z,14.16
2022-08-13T04:57:56.324Z,14.01
2022-08-13T05:00:36.405Z,13.89
2022-08-13T05:03:12.943Z,14.07
2022-08-13T05:05:43.993Z,14.13
2022-08-13T05:08:15.375Z,14.39
2022-08-13T05:10:45.868Z,14.29
2022-08-13T05:13:28.858Z,14.47
2022-08-13T05:16:17.781Z,14.65
2022-08-13T05:18:53.253Z,14.63
2022-08-13T05:21:23.661Z,14.61
2022-08-13T05:26:19.686Z,14.81
2022-08-13T05:27:01.724Z,14.97
2022-08-13T05:29:51.903Z,15.06
2022-08-13T05:32:33.165Z,15.18
2022-08-13T05:35:04.521Z,15.20
2022-08-13T05:38:12.720Z,15.34
2022-08-13T05:40:35.787Z,15.44
2022-08-13T05:43:12.745Z,15.50
2022-08-13T05:45:53.596Z,15.78
2022-08-13T05:48:36.477Z,16.09
2022-08-13T05:51:11.326Z,16.44
2022-08-13T05:56:04.650Z,16.85
2022-08-13T05:56:37.183Z,17.04
2022-08-13T05:59:06.589Z,17.10
2022-08-13T06:01:58.374Z,17.28
2022-08-13T06:04:37.534Z,17.26
2022-08-13T06:07:18.510Z,17.72
2022-08-13T06:09:48.340Z,17.61
2022-08-13T06:12:30.380Z,17.74
2022-08-13T06:15:06.686Z,17.72
2022-08-13T06:17:40.467Z,17.87
2022-08-13T06:20:10.518Z,18.20
2022-08-13T06:22:42.105Z,18.29
2022-08-13T06:25:12.635Z,18.52
2022-08-13T06:27:54.362Z,18.48
2022-08-13T06:30:29.689Z,18.65
2022-08-13T06:34:09.132Z,18.47
2022-08-13T06:35:57.022Z,18.31
2022-08-13T06:38:33.891Z,18.19
2022-08-13T06:41:08.308Z,18.67
2022-08-13T06:43:48.686Z,18.84
2022-08-13T06:46:32.331Z,18.99
2022-08-13T06:49:06.078Z,18.89
2022-08-13T06:51:39.250Z,18.96
2022-08-13T06:54:23.633Z,19.18
2022-08-13T06:57:17.662Z,19.18
2022-08-13T07:00:11.460Z,19.66
2022-08-13T07:02:46.761Z,19.45
2022-08-13T07:05:19.588Z,19.83
2022-08-13T07:07:54.381Z,19.64
2022-08-13T07:10:22.816Z,19.73
2022-08-13T07:12:54.299Z,19.71
2022-08-13T07:15:25.181Z,19.64
2022-08-13T07:18:11.003Z,20.05
2022-08-13T07:20:40.048Z,19.70
2022-08-13T07:24:40.639Z,20.00
2022-08-13T07:25:59.462Z,20.32
2022-08-13T07:28:46.365Z,20.56
2022-08-13T07:31:17.884Z,20.86
2022-08-13T07:33:54.972Z,20.80
2022-08-13T07:36:31.045Z,21.00
2022-08-13T07:39:07.091Z,20.93
2022-08-13T07:41:59.381Z,21.06
2022-08-13T07:44:34.211Z,21.22
2022-08-13T07:47:23.414Z,21.63
2022-08-13T07:49:56.877Z,21.69
2022-08-13T07:52:37.393Z,21.61
2022-08-13T07:55:18.452Z,21.64
2022-08-13T07:57:58.206Z,22.04
2022-08-13T08:00:27.731Z,22.18
2022-08-13T08:03:01.836Z,22.04
2022-08-13T08:05:40.531Z,21.98
2022-08-13T08:08:10.803Z,22.23
2022-08-13T08:10:41.582Z,22.46
2022-08-13T08:13:10.396Z,22.59
2022-08-13T08:16:03.309Z,22.37
2022-08-13T08:18:59.825Z,22.71
2022-08-13T08:21:48.405Z,22.71
2022-08-13T08:24:21.598Z,22.88
2022-08-13T08:26:59.831Z,23.02
2022-08-13T08:29:33.886Z,22.75
2022-08-13T08:32:10.143Z,23.76
2022-08-13T08:34:39.597Z,23.57
2022-08-13T08:37:11.198Z,23.38
2022-08-13T08:39:56.817Z,23.71
2022-08-13T08:42:49.415Z,23.87
2022-08-13T08:46:10.542Z,24.12
2022-08-13T08:48:18.872Z,24.21
2022-08-13T08:50:55.211Z,24.29
2022-08-13T08:54:05.948Z,24.32
2022-08-13T08:56:13.849Z,24.63
2022-08-13T08:58:44.748Z,25.16
2022-08-13T09:01:13.862Z,25.04
2022-08-13T09:03:56.821Z,25.03
2022-08-13T09:06:53.804Z,24.34
2022-08-13T09:09:19.058Z,25.20
2022-08-13T09:11:54.486Z,25.33
2022-08-13T09:14:28.145Z,25.08
2022-08-13T09:16:57.404Z,25.43
2022-08-13T09:19:46.381Z,25.38
2022-08-13T09:22:21.428Z,25.77
2022-08-13T09:24:54.402Z,25.93
2022-08-13T09:27:22.617Z,26.12
2022-08-13T09:29:57.808Z,26.44
2022-08-13T09:32:32.285Z,26.57
2022-08-13T09:35:04.743Z,26.24
2022-08-13T09:37:54.885Z,26.24
2022-08-13T09:40:32.684Z,26.52
2022-08-13T09:43:44.214Z,26.55
2022-08-13T09:46:18.902Z,26.83
2022-08-13T09:48:54.207Z,26.92
2022-08-13T09:51:55.803Z,26.83
2022-08-13T09:54:29.911Z,27.05
2022-08-13T09:57:02.332Z,27.82
2022-08-13T09:59:36.098Z,27.54
2022-08-13T10:02:09.588Z,27.11
2022-08-13T10:04:40.735Z,27.65
2022-08-13T10:07:17.301Z,27.65
2022-08-13T10:10:23.988Z,27.60
2022-08-13T10:13:00.933Z,28.23
2022-08-13T10:15:33.268Z,28.63
2022-08-13T10:18:06.244Z,28.36
2022-08-13T10:20:47.261Z,28.45
2022-08-13T10:23:35.251Z,28.87
2022-08-13T10:26:05.852Z,28.18
2022-08-13T10:28:35.642Z,28.80
2022-08-13T10:31:48.533Z,28.56
2022-08-13T10:33:58.197Z,28.80
2022-08-13T10:36:27.488Z,29.43
2022-08-13T10:39:09.680Z,28.85
2022-08-13T10:42:00.570Z,29.70
2022-08-13T10:44:32.314Z,29.58
2022-08-13T10:47:01.333Z,29.63
2022-08-13T10:49:35.822Z,29.01
2022-08-13T10:52:05.411Z,28.95
2022-08-13T10:54:36.910Z,29.46
2022-08-13T10:57:05.960Z,29.58
2022-08-13T10:59:36.153Z,29.25
2022-08-13T11:02:07.930Z,29.41
2022-08-13T11:04:37.815Z,30.12
2022-08-13T11:07:07.343Z,30.15
2022-08-13T11:09:38.891Z,30.53
2022-08-13T11:12:08.737Z,30.07
2022-08-13T11:14:38.067Z,29.30
2022-08-13T11:17:10.156Z,29.81
2022-08-13T11:20:01.510Z,29.35
2022-08-13T11:22:32.402Z,29.45
2022-08-13T11:25:18.384Z,29.59
2022-08-13T11:27:53.539Z,30.03
2022-08-13T11:30:36.133Z,29.99
2022-08-13T11:33:12.753Z,30.04
2022-08-13T11:35:48.444Z,29.69
2022-08-13T11:38:19.938Z,30.41
2022-08-13T11:40:52.862Z,30.61
2022-08-13T11:43:22.287Z,30.26
2022-08-13T11:45:50.898Z,30.06
2022-08-13T11:48:36.385Z,30.42
2022-08-13T11:51:06.011Z,30.52
2022-08-13T11:53:55.261Z,30.88
2022-08-13T11:56:23.954Z,30.69
2022-08-13T11:58:55.363Z,30.77
2022-08-13T12:01:25.396Z,30.77
2022-08-13T12:06:48.074Z,31.34
2022-08-13T12:09:23.901Z,30.88
2022-08-13T12:12:12.483Z,31.15
2022-08-13T12:14:49.936Z,31.05
2022-08-13T12:17:48.810Z,31.22
2022-08-13T12:20:20.045Z,31.19
2022-08-13T12:22:51.958Z,32.01
2022-08-13T12:25:34.274Z,31.48
2022-08-13T12:28:14.542Z,31.41
2022-08-13T12:30:48.121Z,31.81
2022-08-13T12:33:18.226Z,32.19
2022-08-13T12:35:57.559Z,31.19
2022-08-13T12:38:30.735Z,31.20
2022-08-13T12:41:16.831Z,31.70
2022-08-13T12:44:09.750Z,32.02
2022-08-13T12:46:36.643Z,31.58
2022-08-13T12:49:11.581Z,31.59
2022-08-13T12:51:54.757Z,31.69
2022-08-13T12:54:39.967Z,31.93
2022-08-13T12:57:26.518Z,32.48
2022-08-13T13:00:04.075Z,32.72
2022-08-13T13:02:34.865Z,32.52
2022-08-13T13:05:19.262Z,32.31
2022-08-13T13:08:06.226Z,32.55
2022-08-13T13:10:44.580Z,32.26
2022-08-13T13:13:46.184Z,32.84
2022-08-13T13:16:35.203Z,32.77
2022-08-13T13:18:59.712Z,32.03
2022-08-13T13:21:34.781Z,32.55
2022-08-13T13:24:17.674Z,32.19
2022-08-13T13:27:02.595Z,32.12
2022-08-13T13:29:38.349Z,32.92
2022-08-13T13:32:46.593Z,32.52
2022-08-13T13:35:09.916Z,32.86
2022-08-13T13:38:04.693Z,32.67
2022-08-13T13:40:38.087Z,32.32
2022-08-13T13:43:24.187Z,32.65
2022-08-13T13:45:54.440Z,32.37
2022-08-13T13:48:26.154Z,32.14
2022-08-13T13:50:57.069Z,32.02
2022-08-13T13:53:46.555Z,32.46
2022-08-13T13:56:20.070Z,32.50
2022-08-13T13:58:54.828Z,31.70
2022-08-13T14:01:25.533Z,32.37
2022-08-13T14:03:59.670Z,32.27
2022-08-13T14:06:33.088Z,32.06
2022-08-13T14:09:02.325Z,32.36
2022-08-13T14:11:43.695Z,32.14
2022-08-13T14:14:17.934Z,32.34
2022-08-13T14:16:48.873Z,31.89
2022-08-13T14:19:54.033Z,32.28
2022-08-13T14:22:08.515Z,32.75
2022-08-13T14:24:43.220Z,32.53
2022-08-13T14:27:18.737Z,32.53
2022-08-13T14:29:53.125Z,33.00
2022-08-13T14:32:23.856Z,33.15
2022-08-13T14:35:01.934Z,33.30
2022-08-13T14:37:35.270Z,32.70
2022-08-13T14:40:06.184Z,32.76
2022-08-13T14:43:17.835Z,32.80
2022-08-13T14:45:58.218Z,32.23
2022-08-13T14:48:29.462Z,32.96
2022-08-13T14:51:20.731Z,33.12
2022-08-13T14:53:52.228Z,33.34
2022-08-13T14:56:22.262Z,33.25
2022-08-13T14:58:57.129Z,32.82
2022-08-13T15:01:26.099Z,32.54
2022-08-13T15:03:57.317Z,32.99
2022-08-13T15:06:32.308Z,33.31
2022-08-13T15:09:09.836Z,32.88
2022-08-13T15:11:51.333Z,32.84
2022-08-13T15:14:28.664Z,32.89
2022-08-13T15:17:04.567Z,32.73
2022-08-13T15:19:37.645Z,32.50
2022-08-13T15:22:10.121Z,32.24
2022-08-13T15:24:55.064Z,32.68
2022-08-13T15:27:31.479Z,32.73
2022-08-13T15:30:06.350Z,32.59
2022-08-13T15:32:35.141Z,32.40
2022-08-13T15:35:04.461Z,32.69
2022-08-13T15:37:55.858Z,32.51
2022-08-13T15:40:30.487Z,32.78
2022-08-13T15:43:07.445Z,32.46
2022-08-13T15:45:42.539Z,32.39
2022-08-13T15:48:19.232Z,32.51
2022-08-13T15:50:52.672Z,32.28
2022-08-13T15:53:23.837Z,32.24
2022-08-13T15:55:56.777Z,32.07
2022-08-13T15:58:30.913Z,32.48
2022-08-13T16:01:20.881Z,32.80
2022-08-13T16:03:56.515Z,32.03
2022-08-13T16:06:31.968Z,32.20
2022-08-13T16:09:05.446Z,32.78
2022-08-13T16:11:45.978Z,33.11
2022-08-13T16:14:18.678Z,32.36
2022-08-13T16:16:51.287Z,32.27
2022-08-13T16:19:39.935Z,32.44
2022-08-13T16:22:10.626Z,32.63
2022-08-13T16:24:41.121Z,32.36
2022-08-13T16:27:24.322Z,32.18
2022-08-13T16:30:02.816Z,32.31
2022-08-13T16:32:43.154Z,32.10
2022-08-13T16:35:16.511Z,32.36
2022-08-13T16:37:55.061Z,32.30
2022-08-13T16:40:35.720Z,32.25
2022-08-13T16:43:10.400Z,32.37
2022-08-13T16:45:42.704Z,32.06
2022-08-13T16:48:13.443Z,32.08
2022-08-13T16:50:47.638Z,31.78
2022-08-13T16:53:24.285Z,31.53
2022-08-13T16:56:14.047Z,31.54
2022-08-13T16:58:51.141Z,31.39
2022-08-13T17:01:20.676Z,31.48
2022-08-13T17:04:12.385Z,31.41
2022-08-13T17:07:17.527Z,31.23
2022-08-13T17:09:46.820Z,31.18
2022-08-13T17:12:19.666Z,31.18
2022-08-13T17:14:47.906Z,31.22
2022-08-13T17:17:16.962Z,31.12
2022-08-13T17:19:59.830Z,31.14
2022-08-13T17:22:32.489Z,31.19
2022-08-13T17:25:01.866Z,31.10
2022-08-13T17:27:32.482Z,31.07
2022-08-13T17:30:04.763Z,31.06
2022-08-13T17:32:37.645Z,30.82
2022-08-13T17:35:14.366Z,30.82
2022-08-13T17:37:55.353Z,30.78
2022-08-13T17:40:33.247Z,30.82
2022-08-13T17:44:07.754Z,30.59
2022-08-13T17:45:57.493Z,30.76
2022-08-13T17:48:39.156Z,30.64
2022-08-13T17:51:22.336Z,30.46
2022-08-13T17:53:51.377Z,30.24
2022-08-13T17:56:19.505Z,30.49
2022-08-13T17:58:49.497Z,30.31
2022-08-13T18:01:23.814Z,29.91
2022-08-13T18:03:58.428Z,29.66
2022-08-13T18:06:31.096Z,29.48
2022-08-13T18:09:04.013Z,29.25
2022-08-13T18:11:37.977Z,29.13
2022-08-13T18:14:33.726Z,29.06
2022-08-13T18:18:13.844Z,28.87
2022-08-13T18:19:53.121Z,28.81
2022-08-13T18:22:26.585Z,28.73
2022-08-13T18:24:57.178Z,28.74
2022-08-13T18:28:15.697Z,28.74
2022-08-13T18:30:28.974Z,28.52
2022-08-13T18:33:02.299Z,28.04
2022-08-13T18:35:31.585Z,27.93
2022-08-13T18:38:01.812Z,27.62
2022-08-13T18:40:30.003Z,27.55
2022-08-13T18:42:58.999Z,27.54
2022-08-13T18:45:57.052Z,27.34
2022-08-13T18:48:17.130Z,27.08
2022-08-13T18:50:52.469Z,26.62
2022-08-13T18:53:33.233Z,26.23
2022-08-13T18:56:13.770Z,26.03
2022-08-13T18:58:43.137Z,25.72
2022-08-13T19:01:15.767Z,25.62
2022-08-13T19:03:59.411Z,25.21
2022-08-13T19:06:33.356Z,25.13
2022-08-13T19:09:04.270Z,24.94
2022-08-13T19:11:44.455Z,25.31
2022-08-13T19:14:13.055Z,25.18
2022-08-13T19:16:42.503Z,25.19
2022-08-13T19:19:17.377Z,25.05
2022-08-13T19:21:51.715Z,25.12
2022-08-13T19:24:29.369Z,25.20
2022-08-13T19:26:59.122Z,25.11
2022-08-13T19:29:28.591Z,24.89
2022-08-13T19:32:00.900Z,24.63
2022-08-13T19:34:31.556Z,24.92
2022-08-13T19:37:06.823Z,24.89
2022-08-13T19:39:58.418Z,25.05
2022-08-13T19:42:33.846Z,25.30
2022-08-13T19:45:16.126Z,24.94
2022-08-13T19:47:58.841Z,24.62
2022-08-13T19:50:32.073Z,24.76
2022-08-13T19:53:03.954Z,24.96
2022-08-13T19:55:52.841Z,24.75
2022-08-13T19:58:22.691Z,24.54
2022-08-13T20:00:53.829Z,24.75
2022-08-13T20:03:25.686Z,24.46
2022-08-13T20:06:17.049Z,24.36
2022-08-13T20:08:45.491Z,24.37
2022-08-13T20:11:22.923Z,24.51
2022-08-13T20:13:54.468Z,24.65
2022-08-13T20:16:24.976Z,24.35
2022-08-13T20:18:55.577Z,24.42
2022-08-13T20:21:28.068Z,24.34
2022-08-13T20:24:22.293Z,23.69
2022-08-13T20:27:01.381Z,23.25
2022-08-13T20:29:30.471Z,23.49
2022-08-13T20:31:58.829Z,23.45
2022-08-13T20:34:29.731Z,23.27
2022-08-13T20:36:58.864Z,23.31
2022-08-13T20:39:45.426Z,23.40
2022-08-13T20:42:14.976Z,23.34
2022-08-13T20:44:43.413Z,23.46
2022-08-13T20:47:19.921Z,23.20
2022-08-13T20:49:53.693Z,23.45
2022-08-13T20:52:34.011Z,22.82
2022-08-13T20:55:16.224Z,22.74
2022-08-13T20:57:50.012Z,22.75
2022-08-13T21:00:46.154Z,22.57
2022-08-13T21:03:20.257Z,22.40
2022-08-13T21:05:50.631Z,22.59
2022-08-13T21:08:21.551Z,22.82
2022-08-13T21:10:50.758Z,22.91
2022-08-13T21:13:25.223Z,22.77
2022-08-13T21:16:18.496Z,22.78
2022-08-13T21:18:49.461Z,23.09
2022-08-13T21:21:35.021Z,23.11
2022-08-13T21:24:15.451Z,23.04
2022-08-13T21:26:51.432Z,22.96
2022-08-13T21:29:32.779Z,23.01
2022-08-13T21:32:19.551Z,22.90
2022-08-13T21:34:50.130Z,23.03
2022-08-13T21:37:27.938Z,23.04
2022-08-13T21:40:02.705Z,23.09
2022-08-13T21:42:38.349Z,23.01
2022-08-13T21:45:14.375Z,23.01
2022-08-13T21:47:46.774Z,23.09
2022-08-13T21:50:17.441Z,22.99
2022-08-13T21:52:54.008Z,22.96
2022-08-13T21:55:23.385Z,22.93
2022-08-13T21:57:53.642Z,23.02
2022-08-13T22:00:28.309Z,22.83
2022-08-13T22:03:00.912Z,22.86
2022-08-13T22:05:59.727Z,22.79
2022-08-13T22:08:18.256Z,22.66
2022-08-13T22:10:46.175Z,22.72
2022-08-13T22:13:16.626Z,22.91
2022-08-13T22:15:49.194Z,22.85
2022-08-13T22:18:17.396Z,22.68
2022-08-13T22:20:45.360Z,23.02
2022-08-13T22:23:15.507Z,23.00
2022-08-13T22:25:47.165Z,22.82
2022-08-13T22:28:34.344Z,22.79
2022-08-13T22:31:05.684Z,22.58
2022-08-13T22:33:38.862Z,22.60
2022-08-13T22:36:16.446Z,22.53
2022-08-13T22:38:55.725Z,22.36
2022-08-13T22:41:25.948Z,22.48
2022-08-13T22:43:53.939Z,22.64
2022-08-13T22:46:22.200Z,22.62
2022-08-13T22:48:50.577Z,22.65
2022-08-13T22:51:19.228Z,22.67
2022-08-13T22:53:47.864Z,22.52
2022-08-13T22:56:19.497Z,22.37
2022-08-13T22:58:48.999Z,22.28
2022-08-13T23:01:19.074Z,22.24
2022-08-13T23:03:47.768Z,22.20
2022-08-13T23:06:35.583Z,21.99
2022-08-13T23:09:05.604Z,21.79
2022-08-13T23:11:34.241Z,21.65
2022-08-13T23:14:03.579Z,21.66
2022-08-13T23:16:32.008Z,21.58
2022-08-13T23:19:00.439Z,21.47
2022-08-13T23:21:30.670Z,21.37
2022-08-13T23:23:58.865Z,21.37
2022-08-13T23:26:30.483Z,21.48
2022-08-13T23:29:00.433Z,21.53
2022-08-13T23:31:30.518Z,21.49
2022-08-13T23:34:01.870Z,20.88
2022-08-13T23:36:33.521Z,20.61
2022-08-13T23:39:01.713Z,20.57
2022-08-13T23:41:35.123Z,20.82
2022-08-13T23:44:10.669Z,20.62
2022-08-13T23:46:51.751Z,19.79
2022-08-13T23:49:25.128Z,19.46
2022-08-13T23:51:57.045Z,19.64
2022-08-13T23:54:26.067Z,19.93
2022-08-13T23:57:01.082Z,19.56
2022-08-13T23:59:31.467Z,19.78
